sensor_id;sensor_type;location;lat;lon;timestamp;temperature;humidity
20070;DHT22;10195;50.868;4.382;2023-12-29T00:00:34;11.30;99.90
20070;DHT22;10195;50.868;4.382;2023-12-29T00:02:59;11.30;99.90
20070;DHT22;10195;50.868;4.382;2023-12-29T00:05:25;11.30;99.90
20070;DHT22;10195;50.868;4.382;2023-12-29T00:07:52;11.30;99.90
20070;DHT22;10195;50.868;4.382;2023-12-29T00:10:17;11.20;99.90
20070;DHT22;10195;50.868;4.382;2023-12-29T00:12:43;11.20;99.90
20070;DHT22;10195;50.868;4.382;2023-12-29T00:15:09;11.20;99.90
20070;DHT22;10195;50.868;4.382;2023-12-29T00:17:35;11.20;99.90
20070;DHT22;10195;50.868;4.382;2023-12-29T00:20:04;11.20;99.90
20070;DHT22;10195;50.868;4.382;2023-12-29T00:22:30;11.30;99.90
20070;DHT22;10195;50.868;4.382;2023-12-29T00:24:55;11.30;99.90
20070;DHT22;10195;50.868;4.382;2023-12-29T00:27:21;11.20;99.90
20070;DHT22;10195;50.868;4.382;2023-12-29T00:29:47;11.20;99.90
20070;DHT22;10195;50.868;4.382;2023-12-29T00:32:13;11.20;99.90
20070;DHT22;10195;50.868;4.382;2023-12-29T00:34:38;11.10;99.90
20070;DHT22;10195;50.868;4.382;2023-12-29T00:37:05;11.10;99.90
20070;DHT22;10195;50.868;4.382;2023-12-29T00:39:31;11.10;99.90
20070;DHT22;10195;50.868;4.382;2023-12-29T00:42:07;11.10;99.90
20070;DHT22;10195;50.868;4.382;2023-12-29T00:44:33;11.10;99.90
20070;DHT22;10195;50.868;4.382;2023-12-29T00:46:59;11.20;99.90
20070;DHT22;10195;50.868;4.382;2023-12-29T00:49:26;11.20;99.90
20070;DHT22;10195;50.868;4.382;2023-12-29T00:51:51;11.20;99.90
20070;DHT22;10195;50.868;4.382;2023-12-29T00:54:17;11.10;99.90
20070;DHT22;10195;50.868;4.382;2023-12-29T00:56:49;11.20;99.90
20070;DHT22;10195;50.868;4.382;2023-12-29T00:59:15;11.20;99.90
20070;DHT22;10195;50.868;4.382;2023-12-29T01:01:41;11.30;99.90
20070;DHT22;10195;50.868;4.382;2023-12-29T01:04:07;11.30;99.90
20070;DHT22;10195;50.868;4.382;2023-12-29T01:06:33;11.30;99.90
20070;DHT22;10195;50.868;4.382;2023-12-29T01:08:58;11.30;99.90
20070;DHT22;10195;50.868;4.382;2023-12-29T01:11:24;11.30;99.90
20070;DHT22;10195;50.868;4.382;2023-12-29T01:13:53;11.30;99.90
20070;DHT22;10195;50.868;4.382;2023-12-29T01:16:18;11.30;99.90
20070;DHT22;10195;50.868;4.382;2023-12-29T01:18:44;11.30;99.90
20070;DHT22;10195;50.868;4.382;2023-12-29T01:21:09;11.30;99.90
20070;DHT22;10195;50.868;4.382;2023-12-29T01:23:35;11.30;99.90
20070;DHT22;10195;50.868;4.382;2023-12-29T01:26:03;11.30;99.90
20070;DHT22;10195;50.868;4.382;2023-12-29T01:28:29;11.30;99.90
20070;DHT22;10195;50.868;4.382;2023-12-29T01:30:54;11.20;99.90
20070;DHT22;10195;50.868;4.382;2023-12-29T01:33:20;11.20;99.90
20070;DHT22;10195;50.868;4.382;2023-12-29T01:35:47;11.20;99.90
20070;DHT22;10195;50.868;4.382;2023-12-29T01:38:12;11.30;99.90
20070;DHT22;10195;50.868;4.382;2023-12-29T01:40:47;11.20;99.90
20070;DHT22;10195;50.868;4.382;2023-12-29T01:43:13;11.20;99.90
20070;DHT22;10195;50.868;4.382;2023-12-29T01:45:39;11.20;99.90
20070;DHT22;10195;50.868;4.382;2023-12-29T01:48:05;11.30;99.90
20070;DHT22;10195;50.868;4.382;2023-12-29T01:50:31;11.30;99.90
20070;DHT22;10195;50.868;4.382;2023-12-29T01:52:58;11.30;99.90
20070;DHT22;10195;50.868;4.382;2023-12-29T01:55:25;11.30;99.90
20070;DHT22;10195;50.868;4.382;2023-12-29T01:57:51;11.30;99.90
20070;DHT22;10195;50.868;4.382;2023-12-29T02:00:18;11.20;99.90
20070;DHT22;10195;50.868;4.382;2023-12-29T02:02:46;11.20;99.90
20070;DHT22;10195;50.868;4.382;2023-12-29T02:05:13;11.30;99.90
20070;DHT22;10195;50.868;4.382;2023-12-29T02:07:41;11.30;99.90
20070;DHT22;10195;50.868;4.382;2023-12-29T02:10:07;11.30;99.90
20070;DHT22;10195;50.868;4.382;2023-12-29T02:12:37;11.30;99.90
20070;DHT22;10195;50.868;4.382;2023-12-29T02:15:04;11.20;99.90
20070;DHT22;10195;50.868;4.382;2023-12-29T02:17:52;11.30;99.90
20070;DHT22;10195;50.868;4.382;2023-12-29T02:20:21;11.30;99.90
20070;DHT22;10195;50.868;4.382;2023-12-29T02:22:47;11.30;99.90
20070;DHT22;10195;50.868;4.382;2023-12-29T02:25:13;11.30;99.90
20070;DHT22;10195;50.868;4.382;2023-12-29T02:30:33;11.40;99.90
20070;DHT22;10195;50.868;4.382;2023-12-29T02:33:05;11.30;99.90
20070;DHT22;10195;50.868;4.382;2023-12-29T02:35:35;11.30;99.90
20070;DHT22;10195;50.868;4.382;2023-12-29T02:38:03;11.20;99.90
20070;DHT22;10195;50.868;4.382;2023-12-29T02:40:29;11.20;99.90
20070;DHT22;10195;50.868;4.382;2023-12-29T02:42:55;11.20;99.90
20070;DHT22;10195;50.868;4.382;2023-12-29T02:45:21;11.30;99.90
20070;DHT22;10195;50.868;4.382;2023-12-29T02:47:48;11.30;99.90
20070;DHT22;10195;50.868;4.382;2023-12-29T02:50:14;11.30;99.90
20070;DHT22;10195;50.868;4.382;2023-12-29T02:52:40;11.30;99.90
20070;DHT22;10195;50.868;4.382;2023-12-29T02:55:06;11.30;99.90
20070;DHT22;10195;50.868;4.382;2023-12-29T02:57:31;11.30;99.90
20070;DHT22;10195;50.868;4.382;2023-12-29T02:59:57;11.30;99.90
20070;DHT22;10195;50.868;4.382;2023-12-29T03:02:23;11.30;99.90
20070;DHT22;10195;50.868;4.382;2023-12-29T03:04:49;11.40;99.90
20070;DHT22;10195;50.868;4.382;2023-12-29T03:07:14;11.40;99.90
20070;DHT22;10195;50.868;4.382;2023-12-29T03:09:40;11.30;99.90
20070;DHT22;10195;50.868;4.382;2023-12-29T03:12:06;11.30;99.90
20070;DHT22;10195;50.868;4.382;2023-12-29T03:14:32;11.30;99.90
20070;DHT22;10195;50.868;4.382;2023-12-29T03:16:58;11.30;99.90
20070;DHT22;10195;50.868;4.382;2023-12-29T03:19:24;11.30;99.90
20070;DHT22;10195;50.868;4.382;2023-12-29T03:21:50;11.20;99.90
20070;DHT22;10195;50.868;4.382;2023-12-29T03:24:15;11.20;99.90
20070;DHT22;10195;50.868;4.382;2023-12-29T03:26:41;11.10;99.90
20070;DHT22;10195;50.868;4.382;2023-12-29T03:29:07;11.10;99.90
20070;DHT22;10195;50.868;4.382;2023-12-29T03:31:32;11.10;99.90
20070;DHT22;10195;50.868;4.382;2023-12-29T03:33:58;11.10;99.90
20070;DHT22;10195;50.868;4.382;2023-12-29T03:36:24;11.00;99.90
20070;DHT22;10195;50.868;4.382;2023-12-29T03:38:49;11.00;99.90
20070;DHT22;10195;50.868;4.382;2023-12-29T03:41:15;11.00;99.90
20070;DHT22;10195;50.868;4.382;2023-12-29T03:43:41;10.90;99.90
20070;DHT22;10195;50.868;4.382;2023-12-29T03:46:19;10.90;99.90
20070;DHT22;10195;50.868;4.382;2023-12-29T03:48:46;10.90;99.90
20070;DHT22;10195;50.868;4.382;2023-12-29T03:51:13;10.90;99.90
20070;DHT22;10195;50.868;4.382;2023-12-29T03:53:38;10.90;99.90
20070;DHT22;10195;50.868;4.382;2023-12-29T03:56:08;11.00;99.90
20070;DHT22;10195;50.868;4.382;2023-12-29T03:58:34;10.90;99.90
20070;DHT22;10195;50.868;4.382;2023-12-29T04:01:00;10.80;99.90
20070;DHT22;10195;50.868;4.382;2023-12-29T04:03:26;10.90;99.90
20070;DHT22;10195;50.868;4.382;2023-12-29T04:05:54;10.80;99.90
20070;DHT22;10195;50.868;4.382;2023-12-29T04:08:20;10.80;99.90
20070;DHT22;10195;50.868;4.382;2023-12-29T04:10:45;10.70;99.90
20070;DHT22;10195;50.868;4.382;2023-12-29T04:13:11;10.70;99.90
20070;DHT22;10195;50.868;4.382;2023-12-29T04:15:38;10.70;99.90
20070;DHT22;10195;50.868;4.382;2023-12-29T04:18:04;10.70;99.90
20070;DHT22;10195;50.868;4.382;2023-12-29T04:20:30;10.70;99.90
20070;DHT22;10195;50.868;4.382;2023-12-29T04:22:55;10.70;99.90
20070;DHT22;10195;50.868;4.382;2023-12-29T04:25:21;10.60;99.90
20070;DHT22;10195;50.868;4.382;2023-12-29T04:27:46;10.60;99.90
20070;DHT22;10195;50.868;4.382;2023-12-29T04:30:12;10.60;99.90
20070;DHT22;10195;50.868;4.382;2023-12-29T04:32:38;10.60;99.90
20070;DHT22;10195;50.868;4.382;2023-12-29T04:35:04;10.60;99.90
20070;DHT22;10195;50.868;4.382;2023-12-29T04:37:30;10.70;99.90
20070;DHT22;10195;50.868;4.382;2023-12-29T04:39:56;10.70;99.90
20070;DHT22;10195;50.868;4.382;2023-12-29T04:42:21;10.70;99.90
20070;DHT22;10195;50.868;4.382;2023-12-29T04:44:47;10.70;99.90
20070;DHT22;10195;50.868;4.382;2023-12-29T04:47:12;10.70;99.90
20070;DHT22;10195;50.868;4.382;2023-12-29T04:49:38;10.70;99.90
20070;DHT22;10195;50.868;4.382;2023-12-29T04:52:04;10.70;99.90
20070;DHT22;10195;50.868;4.382;2023-12-29T04:54:30;10.70;99.90
20070;DHT22;10195;50.868;4.382;2023-12-29T04:56:55;10.70;99.90
20070;DHT22;10195;50.868;4.382;2023-12-29T04:59:21;10.70;99.90
20070;DHT22;10195;50.868;4.382;2023-12-29T05:01:47;10.60;99.90
20070;DHT22;10195;50.868;4.382;2023-12-29T05:04:12;10.60;99.90
20070;DHT22;10195;50.868;4.382;2023-12-29T05:06:40;10.60;99.90
20070;DHT22;10195;50.868;4.382;2023-12-29T05:09:06;10.60;99.90
20070;DHT22;10195;50.868;4.382;2023-12-29T05:11:31;10.70;99.90
20070;DHT22;10195;50.868;4.382;2023-12-29T05:13:58;10.70;99.90
20070;DHT22;10195;50.868;4.382;2023-12-29T05:16:26;10.70;99.90
20070;DHT22;10195;50.868;4.382;2023-12-29T05:18:54;10.70;99.90
20070;DHT22;10195;50.868;4.382;2023-12-29T05:21:20;10.60;99.90
20070;DHT22;10195;50.868;4.382;2023-12-29T05:23:47;10.60;99.90
20070;DHT22;10195;50.868;4.382;2023-12-29T05:26:14;10.60;99.90
20070;DHT22;10195;50.868;4.382;2023-12-29T05:28:40;10.60;99.90
20070;DHT22;10195;50.868;4.382;2023-12-29T05:31:05;10.60;99.90
20070;DHT22;10195;50.868;4.382;2023-12-29T05:33:32;10.60;99.90
20070;DHT22;10195;50.868;4.382;2023-12-29T05:35:58;10.60;99.90
20070;DHT22;10195;50.868;4.382;2023-12-29T05:38:24;10.60;99.90
20070;DHT22;10195;50.868;4.382;2023-12-29T05:40:50;10.60;99.90
20070;DHT22;10195;50.868;4.382;2023-12-29T05:43:16;10.60;99.90
20070;DHT22;10195;50.868;4.382;2023-12-29T05:45:41;10.70;99.90
20070;DHT22;10195;50.868;4.382;2023-12-29T05:48:07;10.70;99.90
20070;DHT22;10195;50.868;4.382;2023-12-29T05:50:33;10.70;99.90
20070;DHT22;10195;50.868;4.382;2023-12-29T05:52:59;10.70;99.90
20070;DHT22;10195;50.868;4.382;2023-12-29T05:55:25;10.70;99.90
20070;DHT22;10195;50.868;4.382;2023-12-29T05:57:50;10.80;99.90
20070;DHT22;10195;50.868;4.382;2023-12-29T06:00:16;10.70;99.90
20070;DHT22;10195;50.868;4.382;2023-12-29T06:02:42;10.70;99.90
20070;DHT22;10195;50.868;4.382;2023-12-29T06:05:10;10.70;99.90
20070;DHT22;10195;50.868;4.382;2023-12-29T06:07:36;10.70;99.90
20070;DHT22;10195;50.868;4.382;2023-12-29T06:10:02;10.60;99.90
20070;DHT22;10195;50.868;4.382;2023-12-29T06:12:28;10.50;99.90
20070;DHT22;10195;50.868;4.382;2023-12-29T06:14:54;10.40;99.90
20070;DHT22;10195;50.868;4.382;2023-12-29T06:17:20;10.30;99.90
20070;DHT22;10195;50.868;4.382;2023-12-29T06:19:45;10.30;99.90
20070;DHT22;10195;50.868;4.382;2023-12-29T06:22:11;10.30;99.90
20070;DHT22;10195;50.868;4.382;2023-12-29T06:24:40;10.30;99.90
20070;DHT22;10195;50.868;4.382;2023-12-29T06:27:09;10.30;99.90
20070;DHT22;10195;50.868;4.382;2023-12-29T06:29:35;10.30;99.90
20070;DHT22;10195;50.868;4.382;2023-12-29T06:32:02;10.20;99.90
20070;DHT22;10195;50.868;4.382;2023-12-29T06:34:28;10.20;99.90
20070;DHT22;10195;50.868;4.382;2023-12-29T06:36:53;10.20;99.90
20070;DHT22;10195;50.868;4.382;2023-12-29T06:39:19;10.30;99.90
20070;DHT22;10195;50.868;4.382;2023-12-29T06:41:45;10.20;99.90
20070;DHT22;10195;50.868;4.382;2023-12-29T06:44:10;10.20;99.90
20070;DHT22;10195;50.868;4.382;2023-12-29T06:46:39;10.30;99.90
20070;DHT22;10195;50.868;4.382;2023-12-29T06:49:08;10.30;99.90
20070;DHT22;10195;50.868;4.382;2023-12-29T06:51:34;10.30;99.90
20070;DHT22;10195;50.868;4.382;2023-12-29T06:54:06;10.30;99.90
20070;DHT22;10195;50.868;4.382;2023-12-29T06:56:32;10.30;99.90
20070;DHT22;10195;50.868;4.382;2023-12-29T06:58:58;10.20;99.90
20070;DHT22;10195;50.868;4.382;2023-12-29T07:01:23;10.20;99.90
20070;DHT22;10195;50.868;4.382;2023-12-29T07:03:50;10.20;99.90
20070;DHT22;10195;50.868;4.382;2023-12-29T07:06:15;10.10;99.90
20070;DHT22;10195;50.868;4.382;2023-12-29T07:08:41;10.10;99.90
20070;DHT22;10195;50.868;4.382;2023-12-29T07:11:11;10.10;99.90
20070;DHT22;10195;50.868;4.382;2023-12-29T07:13:39;10.10;99.90
20070;DHT22;10195;50.868;4.382;2023-12-29T07:16:05;10.20;99.90
20070;DHT22;10195;50.868;4.382;2023-12-29T07:18:30;10.20;99.90
20070;DHT22;10195;50.868;4.382;2023-12-29T07:20:56;10.20;99.90
20070;DHT22;10195;50.868;4.382;2023-12-29T07:23:24;10.20;99.90
20070;DHT22;10195;50.868;4.382;2023-12-29T07:25:50;10.20;99.90
20070;DHT22;10195;50.868;4.382;2023-12-29T07:28:18;10.10;99.90
20070;DHT22;10195;50.868;4.382;2023-12-29T07:30:44;10.10;99.90
20070;DHT22;10195;50.868;4.382;2023-12-29T07:33:13;10.20;99.90
20070;DHT22;10195;50.868;4.382;2023-12-29T07:35:38;10.20;99.90
20070;DHT22;10195;50.868;4.382;2023-12-29T07:38:04;10.30;99.90
20070;DHT22;10195;50.868;4.382;2023-12-29T07:40:30;10.30;99.90
20070;DHT22;10195;50.868;4.382;2023-12-29T07:42:55;10.30;99.90
20070;DHT22;10195;50.868;4.382;2023-12-29T07:45:21;10.30;99.90
20070;DHT22;10195;50.868;4.382;2023-12-29T07:47:47;10.30;99.90
20070;DHT22;10195;50.868;4.382;2023-12-29T07:50:12;10.30;99.90
20070;DHT22;10195;50.868;4.382;2023-12-29T07:52:38;10.30;99.90
20070;DHT22;10195;50.868;4.382;2023-12-29T07:55:04;10.30;99.90
20070;DHT22;10195;50.868;4.382;2023-12-29T07:57:30;10.30;99.90
20070;DHT22;10195;50.868;4.382;2023-12-29T07:59:55;10.40;99.90
20070;DHT22;10195;50.868;4.382;2023-12-29T08:02:22;10.40;99.90
20070;DHT22;10195;50.868;4.382;2023-12-29T08:04:47;10.40;99.90
20070;DHT22;10195;50.868;4.382;2023-12-29T08:07:14;10.40;99.90
20070;DHT22;10195;50.868;4.382;2023-12-29T08:09:39;10.30;99.90
20070;DHT22;10195;50.868;4.382;2023-12-29T08:12:06;10.30;99.90
20070;DHT22;10195;50.868;4.382;2023-12-29T08:14:31;10.30;99.90
20070;DHT22;10195;50.868;4.382;2023-12-29T08:16:57;10.30;99.90
20070;DHT22;10195;50.868;4.382;2023-12-29T08:19:23;10.20;99.90
20070;DHT22;10195;50.868;4.382;2023-12-29T08:21:49;10.30;99.90
20070;DHT22;10195;50.868;4.382;2023-12-29T08:24:14;10.20;99.90
20070;DHT22;10195;50.868;4.382;2023-12-29T08:26:45;10.30;99.90
20070;DHT22;10195;50.868;4.382;2023-12-29T08:29:12;10.40;99.90
20070;DHT22;10195;50.868;4.382;2023-12-29T08:31:38;10.40;99.90
20070;DHT22;10195;50.868;4.382;2023-12-29T08:34:03;10.40;99.90
20070;DHT22;10195;50.868;4.382;2023-12-29T08:36:29;10.50;99.90
20070;DHT22;10195;50.868;4.382;2023-12-29T08:38:54;10.50;99.90
20070;DHT22;10195;50.868;4.382;2023-12-29T08:41:22;10.40;99.90
20070;DHT22;10195;50.868;4.382;2023-12-29T08:43:47;10.50;99.90
20070;DHT22;10195;50.868;4.382;2023-12-29T08:46:13;10.50;99.90
20070;DHT22;10195;50.868;4.382;2023-12-29T08:48:39;10.50;99.90
20070;DHT22;10195;50.868;4.382;2023-12-29T08:51:04;10.60;99.90
20070;DHT22;10195;50.868;4.382;2023-12-29T08:53:30;10.60;99.90
20070;DHT22;10195;50.868;4.382;2023-12-29T08:55:59;10.60;99.90
20070;DHT22;10195;50.868;4.382;2023-12-29T08:58:25;10.60;99.90
20070;DHT22;10195;50.868;4.382;2023-12-29T09:00:50;10.60;99.90
20070;DHT22;10195;50.868;4.382;2023-12-29T09:03:16;10.60;99.90
20070;DHT22;10195;50.868;4.382;2023-12-29T09:05:42;10.60;99.90
20070;DHT22;10195;50.868;4.382;2023-12-29T09:08:08;10.60;99.90
20070;DHT22;10195;50.868;4.382;2023-12-29T09:10:33;10.60;99.90
20070;DHT22;10195;50.868;4.382;2023-12-29T09:13:01;10.60;99.90
20070;DHT22;10195;50.868;4.382;2023-12-29T09:15:27;10.70;99.90
20070;DHT22;10195;50.868;4.382;2023-12-29T09:17:53;10.70;99.90
20070;DHT22;10195;50.868;4.382;2023-12-29T09:20:18;10.70;99.90
20070;DHT22;10195;50.868;4.382;2023-12-29T09:22:44;10.80;99.90
20070;DHT22;10195;50.868;4.382;2023-12-29T09:25:10;10.80;99.90
20070;DHT22;10195;50.868;4.382;2023-12-29T09:27:35;10.80;99.90
20070;DHT22;10195;50.868;4.382;2023-12-29T09:30:01;10.90;99.90
20070;DHT22;10195;50.868;4.382;2023-12-29T09:32:27;10.90;99.90
20070;DHT22;10195;50.868;4.382;2023-12-29T09:34:52;10.90;99.90
20070;DHT22;10195;50.868;4.382;2023-12-29T09:37:18;10.90;99.90
20070;DHT22;10195;50.868;4.382;2023-12-29T09:39:43;11.00;99.90
20070;DHT22;10195;50.868;4.382;2023-12-29T09:42:16;11.00;99.90
20070;DHT22;10195;50.868;4.382;2023-12-29T09:44:46;10.90;99.90
20070;DHT22;10195;50.868;4.382;2023-12-29T09:47:16;10.90;99.90
20070;DHT22;10195;50.868;4.382;2023-12-29T09:49:44;11.00;99.90
20070;DHT22;10195;50.868;4.382;2023-12-29T09:52:12;11.00;99.90
20070;DHT22;10195;50.868;4.382;2023-12-29T09:54:39;11.00;99.90
20070;DHT22;10195;50.868;4.382;2023-12-29T09:57:05;11.00;99.90
20070;DHT22;10195;50.868;4.382;2023-12-29T09:59:34;10.90;99.90
20070;DHT22;10195;50.868;4.382;2023-12-29T10:02:03;11.00;99.90
20070;DHT22;10195;50.868;4.382;2023-12-29T10:04:29;11.00;99.90
20070;DHT22;10195;50.868;4.382;2023-12-29T10:06:57;11.00;99.90
20070;DHT22;10195;50.868;4.382;2023-12-29T10:09:29;11.10;99.90
20070;DHT22;10195;50.868;4.382;2023-12-29T10:11:56;11.10;99.90
20070;DHT22;10195;50.868;4.382;2023-12-29T10:14:34;11.10;99.90
20070;DHT22;10195;50.868;4.382;2023-12-29T10:17:07;11.00;99.90
20070;DHT22;10195;50.868;4.382;2023-12-29T10:19:46;11.10;99.90
20070;DHT22;10195;50.868;4.382;2023-12-29T10:22:30;11.10;99.90
20070;DHT22;10195;50.868;4.382;2023-12-29T10:24:59;11.20;99.90
20070;DHT22;10195;50.868;4.382;2023-12-29T10:27:25;11.30;99.90
20070;DHT22;10195;50.868;4.382;2023-12-29T10:29:52;11.30;99.90
20070;DHT22;10195;50.868;4.382;2023-12-29T10:32:18;11.40;99.90
20070;DHT22;10195;50.868;4.382;2023-12-29T10:34:43;11.30;99.90
20070;DHT22;10195;50.868;4.382;2023-12-29T10:37:12;11.30;99.90
20070;DHT22;10195;50.868;4.382;2023-12-29T10:39:55;11.40;99.90
20070;DHT22;10195;50.868;4.382;2023-12-29T10:42:21;11.40;99.90
20070;DHT22;10195;50.868;4.382;2023-12-29T10:44:47;11.40;99.90
20070;DHT22;10195;50.868;4.382;2023-12-29T10:47:13;11.40;99.90
20070;DHT22;10195;50.868;4.382;2023-12-29T10:49:41;11.40;99.90
20070;DHT22;10195;50.868;4.382;2023-12-29T10:52:14;11.30;99.90
20070;DHT22;10195;50.868;4.382;2023-12-29T10:54:41;11.30;99.90
20070;DHT22;10195;50.868;4.382;2023-12-29T10:57:08;11.20;99.90
20070;DHT22;10195;50.868;4.382;2023-12-29T10:59:35;11.20;99.90
20070;DHT22;10195;50.868;4.382;2023-12-29T11:02:03;11.20;99.90
20070;DHT22;10195;50.868;4.382;2023-12-29T11:04:30;11.20;99.90
20070;DHT22;10195;50.868;4.382;2023-12-29T11:06:56;11.20;99.90
20070;DHT22;10195;50.868;4.382;2023-12-29T11:09:32;11.20;99.90
20070;DHT22;10195;50.868;4.382;2023-12-29T11:12:00;11.20;99.90
20070;DHT22;10195;50.868;4.382;2023-12-29T11:14:26;11.20;99.90
20070;DHT22;10195;50.868;4.382;2023-12-29T11:16:58;11.30;99.90
20070;DHT22;10195;50.868;4.382;2023-12-29T11:19:26;11.40;99.90
20070;DHT22;10195;50.868;4.382;2023-12-29T11:21:54;11.50;99.90
20070;DHT22;10195;50.868;4.382;2023-12-29T11:24:21;11.50;99.90
20070;DHT22;10195;50.868;4.382;2023-12-29T11:26:48;11.40;99.90
20070;DHT22;10195;50.868;4.382;2023-12-29T11:29:15;11.50;99.90
20070;DHT22;10195;50.868;4.382;2023-12-29T11:31:41;11.60;99.90
20070;DHT22;10195;50.868;4.382;2023-12-29T11:34:33;11.60;99.90
20070;DHT22;10195;50.868;4.382;2023-12-29T11:37:18;11.70;99.90
20070;DHT22;10195;50.868;4.382;2023-12-29T11:39:54;11.60;99.90
20070;DHT22;10195;50.868;4.382;2023-12-29T11:42:28;11.60;99.90
20070;DHT22;10195;50.868;4.382;2023-12-29T11:44:56;11.60;99.90
20070;DHT22;10195;50.868;4.382;2023-12-29T11:47:35;11.60;99.90
20070;DHT22;10195;50.868;4.382;2023-12-29T11:50:02;11.60;99.90
20070;DHT22;10195;50.868;4.382;2023-12-29T11:52:40;11.60;99.90
20070;DHT22;10195;50.868;4.382;2023-12-29T11:55:10;11.60;99.90
20070;DHT22;10195;50.868;4.382;2023-12-29T11:57:36;11.50;99.90
20070;DHT22;10195;50.868;4.382;2023-12-29T12:00:04;11.50;99.90
20070;DHT22;10195;50.868;4.382;2023-12-29T12:02:33;11.60;99.90
20070;DHT22;10195;50.868;4.382;2023-12-29T12:04:58;11.60;99.90
20070;DHT22;10195;50.868;4.382;2023-12-29T12:12:45;11.70;99.90
20070;DHT22;10195;50.868;4.382;2023-12-29T12:15:30;11.60;99.90
20070;DHT22;10195;50.868;4.382;2023-12-29T12:18:06;11.50;99.90
20070;DHT22;10195;50.868;4.382;2023-12-29T12:20:33;11.50;99.90
20070;DHT22;10195;50.868;4.382;2023-12-29T12:23:11;11.40;99.90
20070;DHT22;10195;50.868;4.382;2023-12-29T12:25:40;11.40;99.90
20070;DHT22;10195;50.868;4.382;2023-12-29T12:28:06;11.30;99.90
20070;DHT22;10195;50.868;4.382;2023-12-29T12:30:35;11.30;99.90
20070;DHT22;10195;50.868;4.382;2023-12-29T12:33:02;11.30;99.90
20070;DHT22;10195;50.868;4.382;2023-12-29T12:35:29;11.30;99.90
20070;DHT22;10195;50.868;4.382;2023-12-29T12:38:14;11.30;99.90
20070;DHT22;10195;50.868;4.382;2023-12-29T12:40:42;11.30;99.90
20070;DHT22;10195;50.868;4.382;2023-12-29T12:43:08;11.30;99.90
20070;DHT22;10195;50.868;4.382;2023-12-29T12:45:52;11.20;99.90
20070;DHT22;10195;50.868;4.382;2023-12-29T12:48:34;11.10;99.90
20070;DHT22;10195;50.868;4.382;2023-12-29T12:51:01;11.10;99.90
20070;DHT22;10195;50.868;4.382;2023-12-29T12:53:28;11.10;99.90
20070;DHT22;10195;50.868;4.382;2023-12-29T12:55:54;11.00;99.90
20070;DHT22;10195;50.868;4.382;2023-12-29T12:58:20;10.90;99.90
20070;DHT22;10195;50.868;4.382;2023-12-29T13:00:46;10.90;99.90
20070;DHT22;10195;50.868;4.382;2023-12-29T13:03:13;10.90;99.90
20070;DHT22;10195;50.868;4.382;2023-12-29T13:05:39;10.90;99.90
20070;DHT22;10195;50.868;4.382;2023-12-29T13:08:05;11.00;99.90
20070;DHT22;10195;50.868;4.382;2023-12-29T13:10:32;11.00;99.90
20070;DHT22;10195;50.868;4.382;2023-12-29T13:12:57;11.10;99.90
20070;DHT22;10195;50.868;4.382;2023-12-29T13:15:23;11.10;99.90
20070;DHT22;10195;50.868;4.382;2023-12-29T13:17:55;11.20;99.90
20070;DHT22;10195;50.868;4.382;2023-12-29T13:20:21;11.20;99.90
20070;DHT22;10195;50.868;4.382;2023-12-29T13:22:50;11.30;99.90
20070;DHT22;10195;50.868;4.382;2023-12-29T13:25:25;11.20;99.90
20070;DHT22;10195;50.868;4.382;2023-12-29T13:27:52;11.20;99.90
20070;DHT22;10195;50.868;4.382;2023-12-29T13:30:19;11.20;99.90
20070;DHT22;10195;50.868;4.382;2023-12-29T13:32:46;11.20;99.90
20070;DHT22;10195;50.868;4.382;2023-12-29T13:38:04;11.40;99.90
20070;DHT22;10195;50.868;4.382;2023-12-29T13:43:01;11.40;99.90
20070;DHT22;10195;50.868;4.382;2023-12-29T13:45:30;11.40;99.90
20070;DHT22;10195;50.868;4.382;2023-12-29T13:47:57;11.40;99.90
20070;DHT22;10195;50.868;4.382;2023-12-29T13:50:25;11.40;99.90
20070;DHT22;10195;50.868;4.382;2023-12-29T13:52:51;11.30;99.90
20070;DHT22;10195;50.868;4.382;2023-12-29T13:55:24;11.40;99.90
20070;DHT22;10195;50.868;4.382;2023-12-29T13:57:50;11.30;99.90
20070;DHT22;10195;50.868;4.382;2023-12-29T14:00:19;11.30;99.90
20070;DHT22;10195;50.868;4.382;2023-12-29T14:03:10;11.20;99.90
20070;DHT22;10195;50.868;4.382;2023-12-29T14:05:52;11.20;99.90
20070;DHT22;10195;50.868;4.382;2023-12-29T14:08:32;11.20;99.90
20070;DHT22;10195;50.868;4.382;2023-12-29T14:11:07;11.20;99.90
20070;DHT22;10195;50.868;4.382;2023-12-29T14:13:33;11.20;99.90
20070;DHT22;10195;50.868;4.382;2023-12-29T14:15:59;11.20;99.90
20070;DHT22;10195;50.868;4.382;2023-12-29T14:21:30;11.20;99.90
20070;DHT22;10195;50.868;4.382;2023-12-29T14:24:13;11.20;99.90
20070;DHT22;10195;50.868;4.382;2023-12-29T14:26:42;11.20;99.90
20070;DHT22;10195;50.868;4.382;2023-12-29T14:29:12;11.20;99.90
20070;DHT22;10195;50.868;4.382;2023-12-29T14:31:42;11.20;99.90
20070;DHT22;10195;50.868;4.382;2023-12-29T14:34:12;11.20;99.90
20070;DHT22;10195;50.868;4.382;2023-12-29T14:36:39;11.10;99.90
20070;DHT22;10195;50.868;4.382;2023-12-29T14:39:05;11.10;99.90
20070;DHT22;10195;50.868;4.382;2023-12-29T14:41:32;11.20;99.90
20070;DHT22;10195;50.868;4.382;2023-12-29T14:43:58;11.20;99.90
20070;DHT22;10195;50.868;4.382;2023-12-29T14:46:24;11.10;99.90
20070;DHT22;10195;50.868;4.382;2023-12-29T14:48:54;11.20;99.90
20070;DHT22;10195;50.868;4.382;2023-12-29T14:51:24;11.30;99.90
20070;DHT22;10195;50.868;4.382;2023-12-29T14:53:53;11.30;99.90
20070;DHT22;10195;50.868;4.382;2023-12-29T14:56:19;11.30;99.90
20070;DHT22;10195;50.868;4.382;2023-12-29T14:58:45;11.30;99.90
20070;DHT22;10195;50.868;4.382;2023-12-29T15:01:11;11.20;99.90
20070;DHT22;10195;50.868;4.382;2023-12-29T15:03:37;11.20;99.90
20070;DHT22;10195;50.868;4.382;2023-12-29T15:06:03;11.30;99.90
20070;DHT22;10195;50.868;4.382;2023-12-29T15:08:30;11.20;99.90
20070;DHT22;10195;50.868;4.382;2023-12-29T15:11:04;11.20;99.90
20070;DHT22;10195;50.868;4.382;2023-12-29T15:13:31;11.10;99.90
20070;DHT22;10195;50.868;4.382;2023-12-29T15:16:00;11.20;99.90
20070;DHT22;10195;50.868;4.382;2023-12-29T15:18:29;11.20;99.90
20070;DHT22;10195;50.868;4.382;2023-12-29T15:20:56;11.20;99.90
20070;DHT22;10195;50.868;4.382;2023-12-29T15:23:22;11.20;99.90
20070;DHT22;10195;50.868;4.382;2023-12-29T15:25:49;11.20;99.90
20070;DHT22;10195;50.868;4.382;2023-12-29T15:28:15;11.20;99.90
20070;DHT22;10195;50.868;4.382;2023-12-29T15:30:43;11.30;99.90
20070;DHT22;10195;50.868;4.382;2023-12-29T15:33:08;11.30;99.90
20070;DHT22;10195;50.868;4.382;2023-12-29T15:35:34;11.30;99.90
20070;DHT22;10195;50.868;4.382;2023-12-29T15:38:00;11.30;99.90
20070;DHT22;10195;50.868;4.382;2023-12-29T15:40:25;11.30;99.90
20070;DHT22;10195;50.868;4.382;2023-12-29T15:42:51;11.30;99.90
20070;DHT22;10195;50.868;4.382;2023-12-29T15:45:17;11.30;99.90
20070;DHT22;10195;50.868;4.382;2023-12-29T15:47:50;11.20;99.90